createdAt,value
2017-01-08T00:00:15.199Z,-2.28
2017-01-08T00:01:15.194Z,-2.34
2017-01-08T00:02:15.603Z,-2.25
2017-01-08T00:03:15.183Z,-2.36
2017-01-08T00:04:15.599Z,-2.32
2017-01-08T00:05:15.175Z,-2.37
2017-01-08T00:06:15.587Z,-2.32
2017-01-08T00:07:15.167Z,-2.34
2017-01-08T00:08:15.579Z,-2.4
2017-01-08T00:09:15.163Z,-2.33
2017-01-08T00:10:15.567Z,-2.4
2017-01-08T00:11:15.579Z,-2.34
2017-01-08T00:12:15.571Z,-2.34
2017-01-08T00:13:15.587Z,-2.36
2017-01-08T00:14:15.147Z,-2.28
2017-01-08T00:15:15.139Z,-2.32
2017-01-08T00:16:15.140Z,-2.29
2017-01-08T00:17:15.131Z,-2.26
2017-01-08T00:18:15.540Z,-2.36
2017-01-08T00:19:15.119Z,-2.25
2017-01-08T00:20:15.120Z,-2.29
2017-01-08T00:21:15.123Z,-2.22
2017-01-08T00:22:15.527Z,-2.2
2017-01-08T00:23:15.111Z,-2.36
2017-01-08T00:24:15.100Z,-2.34
2017-01-08T00:25:15.516Z,-2.25
2017-01-08T00:26:15.520Z,-2.32
2017-01-08T00:27:15.096Z,-2.32
2017-01-08T00:28:15.096Z,-2.28
2017-01-08T00:29:15.092Z,-2.34
2017-01-08T00:30:15.084Z,-2.33
2017-01-08T00:31:15.492Z,-2.34
2017-01-08T00:32:15.076Z,-2.32
2017-01-08T00:33:15.484Z,-2.25
2017-01-08T00:34:15.068Z,-2.26
2017-01-08T00:35:15.484Z,-2.26
2017-01-08T00:36:15.476Z,-2.18
2017-01-08T00:37:15.061Z,-2.13
2017-01-08T00:38:15.469Z,-2.23
2017-01-08T00:39:15.052Z,-2.14
2017-01-08T00:40:15.461Z,-2.13
2017-01-08T00:41:15.036Z,-2.25
2017-01-08T00:42:15.457Z,-2.1
2017-01-08T00:43:15.046Z,-2.08
2017-01-08T00:44:15.033Z,-2.14
2017-01-08T00:45:15.033Z,-2.17
2017-01-08T00:46:15.437Z,-2.18
2017-01-08T00:47:15.441Z,-2.15
2017-01-08T00:48:15.429Z,-2.11
2017-01-08T00:49:15.425Z,-2.07
2017-01-08T00:50:15.425Z,-2.08
2017-01-08T00:51:15.421Z,-2.1
2017-01-08T00:52:15.010Z,-2.11
2017-01-08T00:53:15.006Z,-2.05
2017-01-08T00:54:14.998Z,-2
2017-01-08T00:55:15.402Z,-1.94
2017-01-08T00:56:14.993Z,-1.97
2017-01-08T00:57:14.978Z,-1.96
2017-01-08T00:58:15.398Z,-1.92
2017-01-08T00:59:14.982Z,-1.92
2017-01-08T01:00:14.978Z,-1.92
2017-01-08T01:01:14.970Z,-1.94
2017-01-08T01:02:15.374Z,-2.02
2017-01-08T01:03:14.582Z,-1.99
2017-01-08T01:04:14.959Z,-1.94
2017-01-08T01:05:14.958Z,-2.02
2017-01-08T01:06:15.370Z,-1.99
2017-01-08T01:07:14.943Z,-2.04
2017-01-08T01:08:14.950Z,-1.97
2017-01-08T01:09:14.935Z,-1.96
2017-01-08T01:10:14.939Z,-1.97
2017-01-08T01:11:15.347Z,-2
2017-01-08T01:12:15.340Z,-2.05
2017-01-08T01:13:15.339Z,-2.07
2017-01-08T01:14:15.336Z,-2
2017-01-08T01:15:15.327Z,-2
2017-01-08T01:16:14.923Z,-2.05
2017-01-08T01:17:14.505Z,-2.05
2017-01-08T01:18:15.323Z,-1.94
2017-01-08T01:19:14.491Z,-1.96
2017-01-08T01:20:14.911Z,-1.97
2017-01-08T01:21:14.895Z,-2.05
2017-01-08T01:22:15.303Z,-1.94
2017-01-08T01:23:14.891Z,-1.97
2017-01-08T01:24:14.883Z,-1.97
2017-01-08T01:25:14.880Z,-2
2017-01-08T01:26:15.288Z,-2.05
2017-01-08T01:27:14.872Z,-2.05
2017-01-08T01:28:14.876Z,-2.05
2017-01-08T01:29:14.868Z,-1.92
2017-01-08T01:30:15.280Z,-1.93
2017-01-08T01:31:14.444Z,-1.87
2017-01-08T01:32:15.276Z,-1.92
2017-01-08T01:33:14.861Z,-1.99
2017-01-08T01:34:15.260Z,-1.92
2017-01-08T01:35:14.856Z,-1.96
2017-01-08T01:36:15.253Z,-1.89
2017-01-08T01:37:15.248Z,-1.92
2017-01-08T01:38:14.840Z,-1.96
2017-01-08T01:39:14.425Z,-1.99
2017-01-08T01:40:15.241Z,-1.9
2017-01-08T01:41:15.241Z,-1.93
2017-01-08T01:42:14.826Z,-1.9
2017-01-08T01:43:15.229Z,-1.94
2017-01-08T01:44:15.221Z,-1.96
2017-01-08T01:45:15.225Z,-1.94
2017-01-08T01:46:14.821Z,-1.89
2017-01-08T01:47:15.210Z,-1.92
2017-01-08T01:48:15.206Z,-1.92
2017-01-08T01:49:14.797Z,-1.99
2017-01-08T01:50:15.198Z,-1.82
2017-01-08T01:51:14.789Z,-1.87
2017-01-08T01:52:14.786Z,-1.92
2017-01-08T01:53:15.194Z,-1.89
2017-01-08T01:54:14.782Z,-1.9
2017-01-08T01:55:14.770Z,-1.93
2017-01-08T01:56:15.182Z,-1.87
2017-01-08T01:57:15.182Z,-1.9
2017-01-08T01:58:15.172Z,-1.94
2017-01-08T01:59:14.354Z,-1.87
2017-01-08T02:00:15.163Z,-1.87
2017-01-08T02:01:14.754Z,-1.93
2017-01-08T02:02:14.746Z,-1.94
2017-01-08T02:03:14.747Z,-1.94
2017-01-08T02:04:14.746Z,-1.92
2017-01-08T02:05:15.151Z,-1.96
2017-01-08T02:06:14.323Z,-1.92
2017-01-08T02:07:14.735Z,-1.94
2017-01-08T02:08:14.715Z,-1.86
2017-01-08T02:09:15.131Z,-1.93
2017-01-08T02:10:14.307Z,-1.9
2017-01-08T02:11:15.123Z,-1.9
2017-01-08T02:12:14.715Z,-1.92
2017-01-08T02:13:15.112Z,-1.96
2017-01-08T02:14:15.111Z,-1.94
2017-01-08T02:15:15.107Z,-1.94
2017-01-08T02:16:14.696Z,-1.92
2017-01-08T02:17:15.104Z,-1.97
2017-01-08T02:18:14.280Z,-1.99
2017-01-08T02:19:15.100Z,-1.89
2017-01-08T02:20:14.684Z,-1.92
2017-01-08T02:21:15.088Z,-1.94
2017-01-08T02:22:14.668Z,-1.94
2017-01-08T02:23:14.672Z,-1.99
2017-01-08T02:24:14.668Z,-1.89
2017-01-08T02:25:15.072Z,-1.93
2017-01-08T02:26:14.656Z,-1.87
2017-01-08T02:27:14.652Z,-1.92
2017-01-08T02:28:14.656Z,-2.02
2017-01-08T02:29:14.652Z,-1.92
2017-01-08T02:30:14.636Z,-2
2017-01-08T02:31:15.044Z,-1.92
2017-01-08T02:32:14.632Z,-1.96
2017-01-08T02:33:14.644Z,-1.97
2017-01-08T02:34:14.628Z,-2.04
2017-01-08T02:35:15.032Z,-1.89
2017-01-08T02:36:14.612Z,-1.92
2017-01-08T02:37:15.024Z,-1.97
2017-01-08T02:38:15.024Z,-1.94
2017-01-08T02:39:14.612Z,-1.96
2017-01-08T02:40:14.199Z,-1.96
2017-01-08T02:41:15.016Z,-2
2017-01-08T02:42:14.596Z,-1.96
2017-01-08T02:43:15.008Z,-1.93
2017-01-08T02:44:14.591Z,-2.02
2017-01-08T02:45:14.591Z,-1.94
2017-01-08T02:46:14.585Z,-1.96
2017-01-08T02:47:14.171Z,-1.92
2017-01-08T02:48:14.987Z,-1.94
2017-01-08T02:49:14.571Z,-2
2017-01-08T02:50:14.155Z,-1.94
2017-01-08T02:51:14.975Z,-1.96
2017-01-08T02:52:14.547Z,-1.97
2017-01-08T02:53:14.555Z,-1.9
2017-01-08T02:54:14.586Z,-1.96
2017-01-08T02:55:14.963Z,-1.96
2017-01-08T02:56:14.951Z,-1.96
2017-01-08T02:57:14.982Z,-1.94
2017-01-08T02:58:14.951Z,-1.87
2017-01-08T02:59:14.946Z,-1.96
2017-01-08T03:00:14.935Z,-1.87
2017-01-08T03:01:14.939Z,-1.87
2017-01-08T03:02:14.111Z,-1.94
2017-01-08T03:03:14.923Z,-1.87
2017-01-08T03:04:14.511Z,-1.9
2017-01-08T03:05:14.914Z,-1.94
2017-01-08T03:06:14.919Z,-1.9
2017-01-08T03:07:14.090Z,-1.86
2017-01-08T03:08:14.913Z,-1.82
2017-01-08T03:09:14.493Z,-1.89
2017-01-08T03:10:14.497Z,-1.89
2017-01-08T03:11:14.893Z,-1.92
2017-01-08T03:12:14.485Z,-1.93
2017-01-08T03:13:14.072Z,-1.93
2017-01-08T03:14:14.876Z,-1.92
2017-01-08T03:15:14.060Z,-1.84
2017-01-08T03:16:14.880Z,-1.89
2017-01-08T03:17:14.051Z,-1.89
2017-01-08T03:18:14.455Z,-2
2017-01-08T03:19:14.459Z,-1.89
2017-01-08T03:20:14.451Z,-1.86
2017-01-08T03:21:14.858Z,-1.86
2017-01-08T03:22:14.854Z,-1.87
2017-01-08T03:23:14.842Z,-1.96
2017-01-08T03:24:14.430Z,-1.93
2017-01-08T03:25:14.842Z,-1.94
2017-01-08T03:26:14.830Z,-1.92
2017-01-08T03:27:14.423Z,-1.9
2017-01-08T03:28:14.826Z,-1.92
2017-01-08T03:29:14.413Z,-1.9
2017-01-08T03:30:13.998Z,-1.84
2017-01-08T03:31:14.821Z,-1.82
2017-01-08T03:32:14.813Z,-1.82
2017-01-08T03:33:14.389Z,-1.84
2017-01-08T03:34:14.814Z,-1.76
2017-01-08T03:35:14.801Z,-1.86
2017-01-08T03:36:14.389Z,-1.86
2017-01-08T03:37:14.382Z,-1.84
2017-01-08T03:38:14.377Z,-1.87
2017-01-08T03:39:14.777Z,-1.86
2017-01-08T03:40:14.365Z,-1.79
2017-01-08T03:41:14.781Z,-1.89
2017-01-08T03:42:13.953Z,-1.79
2017-01-08T03:43:14.769Z,-1.71
2017-01-08T03:44:14.765Z,-1.72
2017-01-08T03:45:14.353Z,-1.78
2017-01-08T03:46:14.757Z,-1.74
2017-01-08T03:47:14.345Z,-1.74
2017-01-08T03:48:14.745Z,-1.78
2017-01-08T03:49:14.337Z,-1.79
2017-01-08T03:50:14.337Z,-1.69
2017-01-08T03:51:14.333Z,-1.82
2017-01-08T03:52:14.317Z,-1.81
2017-01-08T03:53:14.329Z,-1.71
2017-01-08T03:54:14.737Z,-1.71
2017-01-08T03:55:13.903Z,-1.68
2017-01-08T03:56:14.725Z,-1.75
2017-01-08T03:57:14.721Z,-1.75
2017-01-08T03:58:14.713Z,-1.84
2017-01-08T03:59:14.293Z,-1.78
2017-01-08T04:00:14.713Z,-1.76
2017-01-08T04:01:14.705Z,-1.76
2017-01-08T04:02:14.697Z,-1.75
2017-01-08T04:03:13.873Z,-1.72
2017-01-08T04:04:14.281Z,-1.72
2017-01-08T04:05:14.685Z,-1.63
2017-01-08T04:06:14.277Z,-1.66
2017-01-08T04:07:14.273Z,-1.74
2017-01-08T04:08:14.265Z,-1.71
2017-01-08T04:09:14.273Z,-1.66
2017-01-08T04:10:14.661Z,-1.69
2017-01-08T04:11:14.669Z,-1.79
2017-01-08T04:12:14.660Z,-1.76
2017-01-08T04:13:14.256Z,-1.79
2017-01-08T04:14:14.648Z,-1.72
2017-01-08T04:15:14.244Z,-1.82
2017-01-08T04:16:14.237Z,-1.72
2017-01-08T04:17:14.644Z,-1.74
2017-01-08T04:18:14.233Z,-1.69
2017-01-08T04:19:14.633Z,-1.76
2017-01-08T04:20:13.801Z,-1.71
2017-01-08T04:21:14.625Z,-1.74
2017-01-08T04:22:14.213Z,-1.75
2017-01-08T04:23:14.209Z,-1.74
2017-01-08T04:24:14.197Z,-1.74
2017-01-08T04:25:14.618Z,-1.66
2017-01-08T04:26:13.786Z,-1.72
2017-01-08T04:27:14.602Z,-1.72
2017-01-08T04:28:14.610Z,-1.64
2017-01-08T04:29:14.594Z,-1.69
2017-01-08T04:30:14.606Z,-1.57
2017-01-08T04:31:14.595Z,-1.57
2017-01-08T04:32:14.179Z,-1.63
2017-01-08T04:33:14.174Z,-1.6
2017-01-08T04:34:14.579Z,-1.66
2017-01-08T04:35:14.587Z,-1.63
2017-01-08T04:36:14.571Z,-1.63
2017-01-08T04:37:13.748Z,-1.6
2017-01-08T04:38:14.563Z,-1.63
2017-01-08T04:39:13.739Z,-1.69
2017-01-08T04:40:14.560Z,-1.66
2017-01-08T04:41:14.144Z,-1.61
2017-01-08T04:42:14.540Z,-1.6
2017-01-08T04:43:14.136Z,-1.66
2017-01-08T04:44:14.784Z,-1.56
2017-01-08T04:45:14.540Z,-1.54
2017-01-08T04:46:14.124Z,-1.58
2017-01-08T04:47:14.124Z,-1.5
2017-01-08T04:48:14.124Z,-1.53
2017-01-08T04:49:14.121Z,-1.51
2017-01-08T04:50:14.525Z,-1.54
2017-01-08T04:51:14.520Z,-1.58
2017-01-08T04:52:14.108Z,-1.56
2017-01-08T04:53:14.105Z,-1.54
2017-01-08T04:54:13.677Z,-1.46
2017-01-08T04:55:14.537Z,-1.53
2017-01-08T04:56:14.084Z,-1.43
2017-01-08T04:57:14.497Z,-1.43
2017-01-08T04:58:13.665Z,-1.51
2017-01-08T04:59:14.073Z,-1.42
2017-01-08T05:00:14.070Z,-1.5
2017-01-08T05:01:14.070Z,-1.36
2017-01-08T05:02:14.478Z,-1.38
2017-01-08T05:03:14.063Z,-1.38
2017-01-08T05:04:14.478Z,-1.36
2017-01-08T05:05:14.474Z,-1.39
2017-01-08T05:06:14.055Z,-1.42
2017-01-08T05:07:14.462Z,-1.35
2017-01-08T05:08:14.447Z,-1.38
2017-01-08T05:09:14.451Z,-1.39
2017-01-08T05:10:14.442Z,-1.38
2017-01-08T05:11:14.031Z,-1.4
2017-01-08T05:12:14.435Z,-1.38
2017-01-08T05:13:14.027Z,-1.39
2017-01-08T05:14:14.027Z,-1.39
2017-01-08T05:15:14.015Z,-1.36
2017-01-08T05:16:14.424Z,-1.48
2017-01-08T05:17:14.423Z,-1.45
2017-01-08T05:18:14.411Z,-1.46
2017-01-08T05:19:14.000Z,-1.48
2017-01-08T05:20:14.403Z,-1.36
2017-01-08T05:21:14.412Z,-1.48
2017-01-08T05:22:13.992Z,-1.38
2017-01-08T05:23:13.580Z,-1.42
2017-01-08T05:24:13.988Z,-1.4
2017-01-08T05:25:13.985Z,-1.45
2017-01-08T05:26:13.984Z,-1.42
2017-01-08T05:27:13.973Z,-1.42
2017-01-08T05:28:13.976Z,-1.43
2017-01-08T05:29:13.968Z,-1.4
2017-01-08T05:30:14.372Z,-1.3
2017-01-08T05:31:13.952Z,-1.4
2017-01-08T05:32:14.356Z,-1.35
2017-01-08T05:33:13.957Z,-1.39
2017-01-08T05:34:13.952Z,-1.38
2017-01-08T05:35:13.937Z,-1.42
2017-01-08T05:36:14.345Z,-1.42
2017-01-08T05:37:13.932Z,-1.42
2017-01-08T05:38:14.340Z,-1.35
2017-01-08T05:39:14.336Z,-1.45
2017-01-08T05:40:14.344Z,-1.48
2017-01-08T05:41:14.326Z,-1.54
2017-01-08T05:42:13.921Z,-1.48
2017-01-08T05:43:14.325Z,-1.51
2017-01-08T05:44:13.913Z,-1.45
2017-01-08T05:45:13.496Z,-1.5
2017-01-08T05:46:14.317Z,-1.54
2017-01-08T05:47:13.901Z,-1.54
2017-01-08T05:48:13.905Z,-1.45
2017-01-08T05:49:14.313Z,-1.45
2017-01-08T05:50:13.473Z,-1.36
2017-01-08T05:51:14.292Z,-1.54
2017-01-08T05:52:13.472Z,-1.5
2017-01-08T05:53:14.289Z,-1.46
2017-01-08T05:54:14.285Z,-1.48
2017-01-08T05:55:14.281Z,-1.35
2017-01-08T05:56:14.273Z,-1.46
2017-01-08T05:57:13.857Z,-1.42
2017-01-08T05:58:13.845Z,-1.35
2017-01-08T05:59:13.849Z,-1.39
2017-01-08T06:00:13.845Z,-1.35
2017-01-08T06:01:13.845Z,-1.35
2017-01-08T06:02:14.257Z,-1.36
2017-01-08T06:03:13.837Z,-1.4
2017-01-08T06:04:14.246Z,-1.4
2017-01-08T06:05:13.834Z,-1.32
2017-01-08T06:06:13.830Z,-1.29
2017-01-08T06:07:13.830Z,-1.36
2017-01-08T06:08:14.230Z,-1.36
2017-01-08T06:09:13.822Z,-1.39
2017-01-08T06:10:14.219Z,-1.38
2017-01-08T06:11:13.402Z,-1.39
2017-01-08T06:12:14.215Z,-1.35
2017-01-08T06:13:14.207Z,-1.35
2017-01-08T06:14:14.211Z,-1.35
2017-01-08T06:15:14.203Z,-1.32
2017-01-08T06:16:13.787Z,-1.35
2017-01-08T06:17:13.801Z,-1.38
2017-01-08T06:18:13.783Z,-1.35
2017-01-08T06:19:14.488Z,-1.35
2017-01-08T06:20:13.776Z,-1.39
2017-01-08T06:21:14.212Z,-1.4
2017-01-08T06:22:13.764Z,-1.39
2017-01-08T06:23:14.176Z,-1.33
2017-01-08T06:24:14.173Z,-1.35
2017-01-08T06:25:14.173Z,-1.42
2017-01-08T06:26:13.752Z,-1.38
2017-01-08T06:27:13.757Z,-1.4
2017-01-08T06:28:13.745Z,-1.39
2017-01-08T06:29:14.157Z,-1.35
2017-01-08T06:30:13.733Z,-1.36
2017-01-08T06:31:13.318Z,-1.38
2017-01-08T06:32:14.147Z,-1.4
2017-01-08T06:33:13.726Z,-1.42
2017-01-08T06:34:13.717Z,-1.38
2017-01-08T06:35:13.310Z,-1.3
2017-01-08T06:36:14.139Z,-1.4
2017-01-08T06:37:13.710Z,-1.27
2017-01-08T06:38:14.123Z,-1.38
2017-01-08T06:39:13.710Z,-1.3
2017-01-08T06:40:14.112Z,-1.3
2017-01-08T06:41:14.103Z,-1.24
2017-01-08T06:42:14.103Z,-1.29
2017-01-08T06:43:13.696Z,-1.32
2017-01-08T06:44:13.695Z,-1.3
2017-01-08T06:45:14.096Z,-1.29
2017-01-08T06:46:13.680Z,-1.24
2017-01-08T06:47:14.092Z,-1.27
2017-01-08T06:48:14.080Z,-1.27
2017-01-08T06:49:13.672Z,-1.32
2017-01-08T06:50:13.668Z,-1.19
2017-01-08T06:51:13.665Z,-1.27
2017-01-08T06:52:13.657Z,-1.33
2017-01-08T06:53:13.649Z,-1.21
2017-01-08T06:54:13.653Z,-1.24
2017-01-08T06:55:14.057Z,-1.32
2017-01-08T06:56:13.651Z,-1.27
2017-01-08T06:57:13.226Z,-1.25
2017-01-08T06:58:14.042Z,-1.24
2017-01-08T06:59:13.618Z,-1.21
2017-01-08T07:00:13.634Z,-1.29
2017-01-08T07:01:14.038Z,-1.3
2017-01-08T07:02:14.030Z,-1.22
2017-01-08T07:03:14.031Z,-1.15
2017-01-08T07:04:13.619Z,-1.25
2017-01-08T07:05:14.027Z,-1.27
2017-01-08T07:06:14.019Z,-1.22
2017-01-08T07:07:14.019Z,-1.19
2017-01-08T07:08:14.011Z,-1.18
2017-01-08T07:09:13.592Z,-1.17
2017-01-08T07:10:13.188Z,-1.22
2017-01-08T07:11:13.596Z,-1.11
2017-01-08T07:12:13.589Z,-1.14
2017-01-08T07:13:13.584Z,-1.11
2017-01-08T07:14:13.164Z,-0.99
2017-01-08T07:15:13.997Z,-1.06
2017-01-08T07:16:13.980Z,-1.06
2017-01-08T07:17:13.164Z,-1.06
2017-01-08T07:18:13.967Z,-1.04
2017-01-08T07:19:13.972Z,-1.01
2017-01-08T07:20:13.564Z,-0.93
2017-01-08T07:21:13.956Z,-0.99
2017-01-08T07:22:13.551Z,-1
2017-01-08T07:23:13.956Z,-0.87
2017-01-08T07:24:13.795Z,-0.93
2017-01-08T07:25:13.539Z,-0.91
2017-01-08T07:26:13.946Z,-0.87
2017-01-08T07:27:13.947Z,-0.94
2017-01-08T07:28:13.529Z,-0.81
2017-01-08T07:29:13.519Z,-0.89
2017-01-08T07:30:13.931Z,-0.84
2017-01-08T07:31:13.924Z,-0.82
2017-01-08T07:32:13.507Z,-0.75
2017-01-08T07:33:13.499Z,-0.8
2017-01-08T07:34:13.911Z,-0.75
2017-01-08T07:35:13.084Z,-0.74
2017-01-08T07:36:13.497Z,-0.78
2017-01-08T07:37:13.495Z,-0.69
2017-01-08T07:38:13.500Z,-0.67
2017-01-08T07:39:13.892Z,-0.63
2017-01-08T07:40:13.488Z,-0.57
2017-01-08T07:41:13.480Z,-0.54
2017-01-08T07:42:13.063Z,-0.51
2017-01-08T07:43:13.884Z,-0.49
2017-01-08T07:44:13.876Z,-0.46
2017-01-08T07:45:13.876Z,-0.46
2017-01-08T07:46:13.456Z,-0.41
2017-01-08T07:47:13.456Z,-0.39
2017-01-08T07:48:13.448Z,-0.36
2017-01-08T07:49:13.445Z,-0.33
2017-01-08T07:50:13.448Z,-0.35
2017-01-08T07:51:13.445Z,-0.33
2017-01-08T07:52:13.849Z,-0.38
2017-01-08T07:53:13.428Z,-0.33
2017-01-08T07:54:13.433Z,-0.38
2017-01-08T07:55:13.424Z,-0.38
2017-01-08T07:56:13.829Z,-0.3
2017-01-08T07:57:13.421Z,-0.28
2017-01-08T07:58:13.825Z,-0.24
2017-01-08T07:59:13.405Z,-0.21
2017-01-08T08:00:13.401Z,-0.13
2017-01-08T08:01:13.409Z,-0.2
2017-01-08T08:02:13.401Z,-0.17
2017-01-08T08:03:13.401Z,-0.07
2017-01-08T08:04:13.393Z,-0.13
2017-01-08T08:05:13.393Z,-0.06
2017-01-08T08:06:13.789Z,-0.13
2017-01-08T08:07:13.377Z,-0.03
2017-01-08T08:08:13.792Z,-0.13
2017-01-08T08:09:13.377Z,-0.06
2017-01-08T08:10:13.784Z,0.02
2017-01-08T08:11:13.364Z,0.06
2017-01-08T08:12:13.776Z,0.05
2017-01-08T08:13:13.768Z,0.02
2017-01-08T08:14:13.360Z,0.02
2017-01-08T08:15:13.344Z,0.12
2017-01-08T08:16:13.348Z,0.19
2017-01-08T08:17:13.344Z,0.23
2017-01-08T08:18:13.751Z,0.23
2017-01-08T08:19:13.743Z,0.16
2017-01-08T08:20:12.927Z,0.19
2017-01-08T08:21:13.323Z,0.29
2017-01-08T08:22:13.323Z,0.36
2017-01-08T08:23:12.907Z,0.29
2017-01-08T08:24:13.323Z,0.33
2017-01-08T08:25:13.744Z,0.47
2017-01-08T08:26:13.307Z,0.47
2017-01-08T08:27:13.750Z,0.47
2017-01-08T08:28:13.306Z,0.51
2017-01-08T08:29:13.714Z,0.47
2017-01-08T08:30:13.294Z,0.61
2017-01-08T08:31:13.287Z,0.63
2017-01-08T08:32:12.886Z,0.63
2017-01-08T08:33:13.290Z,0.7
2017-01-08T08:34:13.286Z,0.71
2017-01-08T08:35:13.694Z,0.74
2017-01-08T08:36:13.690Z,0.76
2017-01-08T08:37:13.270Z,0.81
2017-01-08T08:38:12.862Z,0.74
2017-01-08T08:39:13.670Z,0.77
2017-01-08T08:40:13.666Z,0.82
2017-01-08T08:41:13.674Z,0.89
2017-01-08T08:42:13.666Z,0.89
2017-01-08T08:43:12.838Z,1.02
2017-01-08T08:44:13.246Z,1.06
2017-01-08T08:45:13.247Z,1.03
2017-01-08T08:46:13.650Z,1.1
2017-01-08T08:47:13.650Z,1.13
2017-01-08T08:48:13.230Z,1.24
2017-01-08T08:49:13.226Z,1.21
2017-01-08T08:50:13.234Z,1.32
2017-01-08T08:51:13.642Z,1.34
2017-01-08T08:52:13.218Z,1.43
2017-01-08T08:53:13.626Z,1.45
2017-01-08T08:54:12.798Z,1.45
2017-01-08T08:55:12.798Z,1.46
2017-01-08T08:56:13.210Z,1.46
2017-01-08T08:57:12.794Z,1.5
2017-01-08T08:58:13.206Z,1.57
2017-01-08T08:59:13.200Z,1.66
2017-01-08T09:00:13.594Z,1.64
2017-01-08T09:01:13.182Z,1.61
2017-01-08T09:02:13.590Z,1.58
2017-01-08T09:03:13.192Z,1.64
2017-01-08T09:04:13.590Z,1.71
2017-01-08T09:05:13.586Z,1.64
2017-01-08T09:06:13.590Z,1.64
2017-01-08T09:07:13.174Z,1.67
2017-01-08T09:08:13.158Z,1.71
2017-01-08T09:09:13.170Z,1.78
2017-01-08T09:10:13.162Z,1.7
2017-01-08T09:11:13.568Z,1.82
2017-01-08T09:12:13.307Z,1.82
2017-01-08T09:13:13.150Z,1.85
2017-01-08T09:14:13.154Z,1.81
2017-01-08T09:15:13.142Z,1.79
2017-01-08T09:16:13.554Z,1.81
2017-01-08T09:17:13.550Z,1.95
2017-01-08T09:18:13.550Z,2.08
2017-01-08T09:19:13.551Z,2.14
2017-01-08T09:20:13.542Z,2.28
2017-01-08T09:21:13.530Z,2.34
2017-01-08T09:22:13.535Z,2.4
2017-01-08T09:23:13.539Z,2.46
2017-01-08T09:24:13.119Z,2.55
2017-01-08T09:25:13.119Z,2.72
2017-01-08T09:26:13.106Z,2.62
2017-01-08T09:27:13.107Z,2.72
2017-01-08T09:28:13.107Z,2.82
2017-01-08T09:29:13.511Z,2.88
2017-01-08T09:30:13.507Z,2.97
2017-01-08T09:31:13.087Z,3.03
2017-01-08T09:32:13.503Z,3.03
2017-01-08T09:33:13.496Z,3.11
2017-01-08T09:34:13.091Z,3.16
2017-01-08T09:35:13.496Z,3.18
2017-01-08T09:36:13.488Z,3.08
2017-01-08T09:37:13.079Z,3.08
2017-01-08T09:38:13.488Z,3.08
2017-01-08T09:39:13.484Z,2.93
2017-01-08T09:40:13.512Z,2.9
2017-01-08T09:41:12.656Z,2.85
2017-01-08T09:42:13.075Z,2.83
2017-01-08T09:43:12.645Z,2.83
2017-01-08T09:44:13.472Z,2.83
2017-01-08T09:45:13.068Z,2.9
2017-01-08T09:46:13.456Z,2.95
2017-01-08T09:47:13.045Z,2.97
2017-01-08T09:48:13.456Z,2.93
2017-01-08T09:49:13.036Z,2.94
2017-01-08T09:50:13.045Z,3.05
2017-01-08T09:51:13.455Z,3.05
2017-01-08T09:52:13.449Z,3
2017-01-08T09:53:12.617Z,2.95
2017-01-08T09:54:13.433Z,3
2017-01-08T09:55:13.277Z,2.94
2017-01-08T09:56:12.609Z,2.95
2017-01-08T09:57:13.433Z,2.9
2017-01-08T09:58:12.609Z,2.95
2017-01-08T09:59:13.009Z,2.94
2017-01-08T10:00:13.421Z,3
2017-01-08T10:01:12.598Z,2.95
2017-01-08T10:02:13.009Z,3.05
2017-01-08T10:03:13.417Z,2.97
2017-01-08T10:04:13.005Z,2.94
2017-01-08T10:05:12.994Z,3.03
2017-01-08T10:06:12.593Z,3.16
2017-01-08T10:07:12.990Z,3.16
2017-01-08T10:08:12.582Z,3.29
2017-01-08T10:09:13.398Z,3.45
2017-01-08T10:10:13.394Z,3.33
2017-01-08T10:11:12.982Z,3.36
2017-01-08T10:12:13.386Z,3.43
2017-01-08T10:13:13.382Z,3.49
2017-01-08T10:14:12.565Z,3.45
2017-01-08T10:15:12.969Z,3.48
2017-01-08T10:16:12.961Z,3.5
2017-01-08T10:17:13.377Z,3.53
2017-01-08T10:18:12.546Z,3.58
2017-01-08T10:19:12.957Z,3.56
2017-01-08T10:20:12.962Z,3.63
2017-01-08T10:21:13.365Z,3.61
2017-01-08T10:22:13.365Z,3.63
2017-01-08T10:23:13.361Z,3.61
2017-01-08T10:24:13.357Z,3.53
2017-01-08T10:25:13.349Z,3.7
2017-01-08T10:26:13.353Z,3.64
2017-01-08T10:27:12.521Z,3.7
2017-01-08T10:28:13.342Z,3.77
2017-01-08T10:29:13.349Z,3.81
2017-01-08T10:30:12.525Z,3.89
2017-01-08T10:31:13.342Z,4.03
2017-01-08T10:32:12.925Z,4.02
2017-01-08T10:33:12.917Z,4.14
2017-01-08T10:34:12.918Z,4.07
2017-01-08T10:35:12.921Z,4.21
2017-01-08T10:36:13.326Z,4.22
2017-01-08T10:37:13.325Z,4.27
2017-01-08T10:38:12.913Z,4.32
2017-01-08T10:39:13.314Z,4.36
2017-01-08T10:40:12.934Z,4.46
2017-01-08T10:41:13.334Z,4.67
2017-01-08T10:42:12.894Z,4.71
2017-01-08T10:43:12.898Z,4.75
2017-01-08T10:44:13.310Z,4.71
2017-01-08T10:45:12.890Z,4.82
2017-01-08T10:46:12.890Z,4.9
2017-01-08T10:47:12.888Z,4.98
2017-01-08T10:48:12.890Z,4.92
2017-01-08T10:49:13.298Z,5
2017-01-08T10:50:13.282Z,4.94
2017-01-08T10:51:12.466Z,5.04
2017-01-08T10:52:13.286Z,5.02
2017-01-08T10:53:13.283Z,5.08
2017-01-08T10:54:12.867Z,5.16
2017-01-08T10:55:13.282Z,5.23
2017-01-08T10:56:12.862Z,5.26
2017-01-08T10:57:12.859Z,5.37
2017-01-08T10:58:13.279Z,5.34
2017-01-08T10:59:12.855Z,5.36
2017-01-08T11:00:13.279Z,5.41
2017-01-08T11:01:13.271Z,5.26
2017-01-08T11:02:12.847Z,5.19
2017-01-08T11:03:13.263Z,5.18
2017-01-08T11:04:12.871Z,5.22
2017-01-08T11:05:12.843Z,5.22
2017-01-08T11:06:13.259Z,5.18
2017-01-08T11:07:13.255Z,5.22
2017-01-08T11:08:12.836Z,5.2
2017-01-08T11:09:13.247Z,5.12
2017-01-08T11:10:13.252Z,5.1
2017-01-08T11:11:13.248Z,5
2017-01-08T11:12:12.827Z,5.08
2017-01-08T11:13:12.824Z,5
2017-01-08T11:14:13.236Z,4.98
2017-01-08T11:15:13.236Z,4.9
2017-01-08T11:16:12.819Z,4.86
2017-01-08T11:17:13.232Z,4.9
2017-01-08T11:18:12.820Z,4.95
2017-01-08T11:19:13.252Z,5.08
2017-01-08T11:20:12.808Z,5.08
2017-01-08T11:21:13.225Z,5.04
2017-01-08T11:22:13.216Z,5.15
2017-01-08T11:23:13.216Z,5.07
2017-01-08T11:24:13.216Z,5.08
2017-01-08T11:25:12.796Z,5.02
2017-01-08T11:26:13.201Z,5.08
2017-01-08T11:27:13.209Z,5.12
2017-01-08T11:28:12.797Z,5.05
2017-01-08T11:29:12.789Z,5.1
2017-01-08T11:30:12.389Z,5.13
2017-01-08T11:31:12.801Z,5.16
2017-01-08T11:32:13.193Z,5.26
2017-01-08T11:33:13.197Z,5.22
2017-01-08T11:34:12.785Z,5.31
2017-01-08T11:35:13.193Z,5.23
2017-01-08T11:36:13.203Z,5.36
2017-01-08T11:37:12.781Z,5.36
2017-01-08T11:38:13.190Z,5.4
2017-01-08T11:39:12.770Z,5.38
2017-01-08T11:40:12.770Z,5.34
2017-01-08T11:41:13.182Z,5.36
2017-01-08T11:42:13.179Z,5.41
2017-01-08T11:43:12.766Z,5.36
2017-01-08T11:44:13.183Z,5.4
2017-01-08T11:45:13.171Z,5.37
2017-01-08T11:46:12.766Z,5.37
2017-01-08T11:47:13.172Z,5.51
2017-01-08T11:48:13.176Z,5.36
2017-01-08T11:49:12.754Z,5.4
2017-01-08T11:50:12.814Z,5.44
2017-01-08T11:51:12.743Z,5.34
2017-01-08T11:52:13.167Z,5.26
2017-01-08T11:53:12.743Z,5.25
2017-01-08T11:54:13.167Z,5.2
2017-01-08T11:55:12.767Z,5.26
2017-01-08T11:56:12.743Z,5.25
2017-01-08T11:57:12.739Z,5.2
2017-01-08T11:58:12.743Z,5.28
2017-01-08T11:59:12.735Z,5.31
2017-01-08T12:00:13.199Z,5.2
2017-01-08T12:01:12.727Z,5.19
2017-01-08T12:02:13.147Z,5.19
2017-01-08T12:03:12.315Z,5.15
2017-01-08T12:04:13.144Z,5.19
2017-01-08T12:05:13.140Z,5.02
2017-01-08T12:06:13.137Z,5.07
2017-01-08T12:07:12.720Z,4.95
2017-01-08T12:08:13.128Z,4.97
2017-01-08T12:09:13.132Z,5.01
2017-01-08T12:10:12.308Z,4.98
2017-01-08T12:11:13.128Z,4.92
2017-01-08T12:12:13.132Z,4.9
2017-01-08T12:13:12.712Z,4.82
2017-01-08T12:14:12.297Z,4.76
2017-01-08T12:15:13.113Z,4.64
2017-01-08T12:16:13.112Z,4.64
2017-01-08T12:17:12.697Z,4.63
2017-01-08T12:18:12.701Z,4.66
2017-01-08T12:19:12.697Z,4.67
2017-01-08T12:20:13.101Z,4.58
2017-01-08T12:21:12.693Z,4.5
2017-01-08T12:22:12.697Z,4.48
2017-01-08T12:23:12.273Z,4.46
2017-01-08T12:24:13.097Z,4.38
2017-01-08T12:25:13.097Z,4.24
2017-01-08T12:26:13.098Z,4.27
2017-01-08T12:27:12.681Z,4.16
2017-01-08T12:28:13.094Z,4.1
2017-01-08T12:29:13.089Z,4.14
2017-01-08T12:30:12.682Z,4
2017-01-08T12:31:13.090Z,4.02
2017-01-08T12:32:12.262Z,4.04
2017-01-08T12:33:12.250Z,4.1
2017-01-08T12:34:12.666Z,4.1
2017-01-08T12:35:12.258Z,4.04
2017-01-08T12:36:13.078Z,4.13
2017-01-08T12:37:12.658Z,4.18
2017-01-08T12:38:13.070Z,4.24
2017-01-08T12:39:12.654Z,4.24
2017-01-08T12:40:13.067Z,4.4
2017-01-08T12:41:12.650Z,4.57
2017-01-08T12:42:12.651Z,4.58
2017-01-08T12:43:12.651Z,4.57
2017-01-08T12:44:13.058Z,4.6
2017-01-08T12:45:12.647Z,4.74
2017-01-08T12:46:13.055Z,4.74
2017-01-08T12:47:13.047Z,4.64
2017-01-08T12:48:12.639Z,4.75
2017-01-08T12:49:13.051Z,4.79
2017-01-08T12:50:12.635Z,4.78
2017-01-08T12:51:13.051Z,4.87
2017-01-08T12:52:13.039Z,4.94
2017-01-08T12:53:13.047Z,4.98
2017-01-08T12:54:12.631Z,5.07
2017-01-08T12:55:12.624Z,5.12
2017-01-08T12:56:12.624Z,5.18
2017-01-08T12:57:13.035Z,5.33
2017-01-08T12:58:12.620Z,5.4
2017-01-08T12:59:13.028Z,5.47
2017-01-08T13:00:12.620Z,5.61
2017-01-08T13:01:13.008Z,5.81
2017-01-08T13:02:12.612Z,5.83
2017-01-08T13:03:12.616Z,5.94
2017-01-08T13:04:13.012Z,6.01
2017-01-08T13:05:12.606Z,6.12
2017-01-08T13:06:13.016Z,6.02